createdAt,value
2023-04-01T00:01:17.657Z,99486.38
2023-04-01T00:03:45.545Z,99486.81
2023-04-01T00:06:16.231Z,99492.72
2023-04-01T00:08:43.416Z,99492.28
2023-04-01T00:11:10.058Z,99495.06
2023-04-01T00:13:37.128Z,99502.53
2023-04-01T00:16:09.947Z,99496.59
2023-04-01T00:18:48.534Z,99493.41
2023-04-01T00:21:15.834Z,99497.34
2023-04-01T00:23:42.721Z,99503.28
2023-04-01T00:26:09.445Z,99502.13
2023-04-01T00:28:37.072Z,99498.13
2023-04-01T00:31:08.296Z,99501.97
2023-04-01T00:33:35.071Z,99504.41
2023-04-01T00:36:07.745Z,99499.22
2023-04-01T00:38:34.529Z,99498.44
2023-04-01T00:41:01.273Z,99500.41
2023-04-01T00:43:28.065Z,99498.78
2023-04-01T00:45:54.765Z,99495.59
2023-04-01T00:48:26.410Z,99497.06
2023-04-01T00:51:23.872Z,99496.66
2023-04-01T00:53:53.589Z,99497.81
2023-04-01T00:56:27.990Z,99493.81
2023-04-01T00:59:03.173Z,99489.09
2023-04-01T01:01:31.512Z,99495.00
2023-04-01T01:03:58.343Z,99485.91
2023-04-01T01:06:40.066Z,99501.31
2023-04-01T01:09:24.505Z,99498.56
2023-04-01T01:12:21.991Z,99505.25
2023-04-01T01:14:54.656Z,99505.59
2023-04-01T01:17:41.903Z,99502.84
2023-04-01T01:20:27.052Z,99510.34
2023-04-01T01:23:29.500Z,99509.88
2023-04-01T01:26:40.299Z,99519.34
2023-04-01T01:29:49.563Z,99514.56
2023-04-01T01:32:37.934Z,99523.66
2023-04-01T01:35:23.510Z,99520.09
2023-04-01T01:37:56.621Z,99517.72
2023-04-01T01:40:25.894Z,99522.84
2023-04-01T01:42:57.515Z,99519.66
2023-04-01T01:45:27.225Z,99525.91
2023-04-01T01:47:57.576Z,99517.97
2023-04-01T01:50:27.221Z,99522.72
2023-04-01T01:53:06.087Z,99527.06
2023-04-01T01:55:36.278Z,99517.19
2023-04-01T01:58:16.412Z,99529.41
2023-04-01T02:00:48.234Z,99529.41
2023-04-01T02:03:16.579Z,99536.88
2023-04-01T02:05:43.618Z,99534.50
2023-04-01T02:08:27.936Z,99537.59
2023-04-01T02:11:02.080Z,99538.06
2023-04-01T02:13:46.843Z,99538.41
2023-04-01T02:16:19.809Z,99539.13
2023-04-01T02:18:50.033Z,99543.09
2023-04-01T02:21:19.575Z,99552.53
2023-04-01T02:23:47.889Z,99555.28
2023-04-01T02:26:15.794Z,99549.38
2023-04-01T02:28:46.273Z,99562.03
2023-04-01T02:31:14.473Z,99561.59
2023-04-01T02:33:41.597Z,99564.38
2023-04-01T02:36:14.475Z,99564.38
2023-04-01T02:38:43.666Z,99567.56
2023-04-01T02:41:10.398Z,99563.19
2023-04-01T02:43:37.140Z,99571.13
2023-04-01T02:46:03.988Z,99576.22
2023-04-01T02:48:30.747Z,99569.47
2023-04-01T02:50:57.526Z,99571.41
2023-04-01T02:53:24.144Z,99567.47
2023-04-01T02:55:53.727Z,99574.19
2023-04-01T02:58:20.478Z,99579.69
2023-04-01T03:00:47.430Z,99576.94
2023-04-01T03:03:14.631Z,99573.00
2023-04-01T03:05:41.916Z,99586.03
2023-04-01T03:08:08.627Z,99578.09
2023-04-01T03:10:35.360Z,99581.66
2023-04-01T03:13:02.076Z,99583.28
2023-04-01T03:15:28.800Z,99584.41
2023-04-01T03:17:55.783Z,99590.75
2023-04-01T03:20:22.508Z,99593.50
2023-04-01T03:22:49.273Z,99593.50
2023-04-01T03:25:16.004Z,99601.00
2023-04-01T03:27:42.652Z,99592.28
2023-04-01T03:30:10.633Z,99600.19
2023-04-01T03:32:37.473Z,99599.03
2023-04-01T03:35:05.580Z,99600.19
2023-04-01T03:37:32.253Z,99606.88
2023-04-01T03:39:58.883Z,99606.06
2023-04-01T03:42:25.537Z,99613.13
2023-04-01T03:44:52.189Z,99611.53
2023-04-01T03:47:18.839Z,99611.53
2023-04-01T03:49:45.481Z,99615.44
2023-04-01T03:52:12.383Z,99616.59
2023-04-01T03:54:39.068Z,99620.53
2023-04-01T03:57:06.504Z,99619.38
2023-04-01T03:59:33.233Z,99628.81
2023-04-01T04:02:00.056Z,99622.41
2023-04-01T04:04:27.603Z,99635.03
2023-04-01T04:06:55.039Z,99627.94
2023-04-01T04:09:21.814Z,99630.69
2023-04-01T04:11:49.006Z,99631.84
2023-04-01T04:14:15.696Z,99639.69
2023-04-01T04:16:42.442Z,99640.50
2023-04-01T04:19:09.502Z,99642.09
2023-04-01T04:21:36.216Z,99646.03
2023-04-01T04:24:03.424Z,99644.06
2023-04-01T04:26:30.253Z,99648.41
2023-04-01T04:28:57.145Z,99655.88
2023-04-01T04:31:25.544Z,99649.13
2023-04-01T04:33:53.404Z,99650.66
2023-04-01T04:36:20.641Z,99653.41
2023-04-01T04:38:47.430Z,99660.16
2023-04-01T04:41:16.249Z,99657.78
2023-04-01T04:43:43.449Z,99660.88
2023-04-01T04:46:11.657Z,99662.50
2023-04-01T04:48:38.398Z,99676.69
2023-04-01T04:51:05.198Z,99676.31
2023-04-01T04:53:31.860Z,99675.16
2023-04-01T04:55:58.559Z,99685.03
2023-04-01T04:58:25.312Z,99685.38
2023-04-01T05:00:51.980Z,99686.53
2023-04-01T05:03:18.798Z,99695.19
2023-04-01T05:05:54.472Z,99696.00
2023-04-01T05:08:21.512Z,99694.81
2023-04-01T05:10:48.231Z,99703.91
2023-04-01T05:13:14.934Z,99707.81
2023-04-01T05:15:41.776Z,99703.03
2023-04-01T05:18:08.556Z,99716.84
2023-04-01T05:20:35.367Z,99710.56
2023-04-01T05:23:02.465Z,99718.84
2023-04-01T05:25:29.284Z,99720.47
2023-04-01T05:27:58.362Z,99718.94
2023-04-01T05:30:25.261Z,99719.31
2023-04-01T05:32:52.041Z,99722.50
2023-04-01T05:35:18.687Z,99739.06
2023-04-01T05:37:45.407Z,99739.78
2023-04-01T05:40:12.245Z,99749.22
2023-04-01T05:42:39.057Z,99763.50
2023-04-01T05:45:06.554Z,99753.59
2023-04-01T05:47:33.207Z,99759.13
2023-04-01T05:49:59.973Z,99753.59
2023-04-01T05:52:26.665Z,99765.06
2023-04-01T05:54:53.503Z,99774.97
2023-04-01T05:57:20.513Z,99776.56
2023-04-01T05:59:47.324Z,99778.16
2023-04-01T06:02:15.425Z,99779.34
2023-04-01T06:04:42.315Z,99777.72
2023-04-01T06:07:17.394Z,99795.44
2023-04-01T06:09:46.067Z,99798.19
2023-04-01T06:12:45.429Z,99800.88
2023-04-01T06:15:33.776Z,99810.69
2023-04-01T06:18:12.595Z,99815.31
2023-04-01T06:20:45.720Z,99814.41
2023-04-01T06:23:36.957Z,99818.78
2023-04-01T06:26:40.573Z,99816.72
2023-04-01T06:29:17.789Z,99825.38
2023-04-01T06:32:02.457Z,99841.81
2023-04-01T06:34:45.671Z,99854.47
2023-04-01T06:37:21.184Z,99847.44
2023-04-01T06:40:06.455Z,99857.34
2023-04-01T06:42:35.974Z,99859.28
2023-04-01T06:45:31.308Z,99869.63
2023-04-01T06:48:17.012Z,99875.13
2023-04-01T06:51:08.058Z,99875.13
2023-04-01T06:53:46.716Z,99885.00
2023-04-01T06:56:17.762Z,99894.91
2023-04-01T06:58:53.868Z,99896.47
2023-04-01T07:01:31.625Z,99892.59
2023-04-01T07:04:03.224Z,99901.22
2023-04-01T07:06:52.913Z,99903.50
2023-04-01T07:09:25.538Z,99909.84
2023-04-01T07:11:58.806Z,99927.22
2023-04-01T07:14:30.102Z,99921.31
2023-04-01T07:17:21.854Z,99932.38
2023-04-01T07:19:55.265Z,99931.94
2023-04-01T07:22:34.480Z,99942.97
2023-04-01T07:25:07.025Z,99945.38
2023-04-01T07:27:33.652Z,99949.41
2023-04-01T07:30:02.903Z,99947.78
2023-04-01T07:32:54.541Z,99959.97
2023-04-01T07:35:30.097Z,99971.38
2023-04-01T07:38:26.628Z,99976.91
2023-04-01T07:41:23.178Z,99980.78
2023-04-01T07:43:52.822Z,99982.78
2023-04-01T07:46:47.517Z,99992.66
2023-04-01T07:49:37.224Z,100003.69
2023-04-01T07:52:25.329Z,100009.22
2023-04-01T07:55:02.095Z,100017.16
2023-04-01T07:57:33.744Z,100013.91
2023-04-01T08:00:12.161Z,100021.88
2023-04-01T08:03:04.212Z,100028.53
2023-04-01T08:05:37.897Z,100037.25
2023-04-01T08:08:46.510Z,100040.94
2023-04-01T08:11:37.480Z,100046.19
2023-04-01T08:14:52.368Z,100060.13
2023-04-01T08:17:33.328Z,100064.13
2023-04-01T08:20:12.447Z,100065.03
2023-04-01T08:22:41.650Z,100078.56
2023-04-01T08:25:18.981Z,100084.22
2023-04-01T08:27:50.037Z,100085.09
2023-04-01T08:30:21.147Z,100095.13
2023-04-01T08:33:06.905Z,100096.38
2023-04-01T08:35:41.296Z,100100.81
2023-04-01T08:38:17.024Z,100111.63
2023-04-01T08:41:10.493Z,100118.06
2023-04-01T08:43:48.952Z,100117.38
2023-04-01T08:46:40.137Z,100130.00
2023-04-01T08:49:34.043Z,100133.22
2023-04-01T08:52:18.680Z,100143.13
2023-04-01T08:54:57.582Z,100144.25
2023-04-01T08:57:30.461Z,100148.75
2023-04-01T09:00:14.988Z,100153.91
2023-04-01T09:03:06.906Z,100164.16
2023-04-01T09:05:56.137Z,100160.25
2023-04-01T09:08:28.819Z,100167.47
2023-04-01T09:11:01.407Z,100169.53
2023-04-01T09:13:38.134Z,100183.53
2023-04-01T09:16:29.009Z,100177.31
2023-04-01T09:19:08.591Z,100186.03
2023-04-01T09:21:38.888Z,100192.06
2023-04-01T09:24:26.939Z,100195.00
2023-04-01T09:27:05.429Z,100199.94
2023-04-01T09:30:00.357Z,100203.22
2023-04-01T09:32:47.886Z,100210.09
2023-04-01T09:35:33.116Z,100211.47
2023-04-01T09:38:21.378Z,100218.00
2023-04-01T09:40:58.433Z,100218.56
2023-04-01T09:43:36.040Z,100218.66
2023-04-01T09:46:15.256Z,100229.38
2023-04-01T09:49:07.089Z,100236.69
2023-04-01T09:51:48.372Z,100233.41
2023-04-01T09:54:32.889Z,100242.78
2023-04-01T09:57:15.351Z,100239.75
2023-04-01T10:00:17.431Z,100233.88
2023-04-01T10:03:14.739Z,100255.91
2023-04-01T10:06:30.718Z,100254.50
2023-04-01T10:09:33.232Z,100265.28
2023-04-01T10:12:17.746Z,100269.72
2023-04-01T10:15:35.407Z,100271.84
2023-04-01T10:18:15.608Z,100280.88
2023-04-01T10:21:00.597Z,100281.09
2023-04-01T10:23:50.578Z,100285.28
2023-04-01T10:26:26.899Z,100291.00
2023-04-01T10:29:18.509Z,100306.28
2023-04-01T10:31:57.510Z,100314.41
2023-04-01T10:34:33.337Z,100308.34
2023-04-01T10:37:06.734Z,100312.09
2023-04-01T10:39:41.054Z,100321.91
2023-04-01T10:42:31.040Z,100324.41
2023-04-01T10:45:19.670Z,100329.94
2023-04-01T10:47:52.102Z,100333.53
2023-04-01T10:50:30.993Z,100340.88
2023-04-01T10:53:33.225Z,100341.66
2023-04-01T10:56:18.302Z,100348.63
2023-04-01T10:59:04.743Z,100354.25
2023-04-01T11:02:11.785Z,100352.66
2023-04-01T11:05:03.631Z,100364.97
2023-04-01T11:07:46.540Z,100363.44
2023-04-01T11:10:52.407Z,100373.00
2023-04-01T11:13:46.447Z,100370.94
2023-04-01T11:16:50.976Z,100381.31
2023-04-01T11:19:39.803Z,100379.50
2023-04-01T11:22:16.169Z,100393.09
2023-04-01T11:25:01.576Z,100393.88
2023-04-01T11:28:06.844Z,100394.44
2023-04-01T11:30:56.477Z,100404.72
2023-04-01T11:33:26.173Z,100414.25
2023-04-01T11:36:08.713Z,100414.25
2023-04-01T11:38:39.625Z,100418.03
2023-04-01T11:41:27.896Z,100421.78
2023-04-01T11:44:18.958Z,100435.09
2023-04-01T11:47:03.876Z,100441.66
2023-04-01T11:49:57.848Z,100440.69
2023-04-01T11:52:49.985Z,100448.66
2023-04-01T11:55:25.738Z,100449.47
2023-04-01T11:57:53.189Z,100451.22
2023-04-01T12:00:31.801Z,100453.41
2023-04-01T12:03:15.700Z,100458.84
2023-04-01T12:06:20.104Z,100462.34
2023-04-01T12:09:02.237Z,100468.91
2023-04-01T12:11:39.574Z,100474.38
2023-04-01T12:14:12.134Z,100468.91
2023-04-01T12:16:44.620Z,100480.44
2023-04-01T12:19:13.987Z,100483.38
2023-04-01T12:21:51.485Z,100488.38
2023-04-01T12:24:27.105Z,100500.84
2023-04-01T12:27:06.116Z,100496.91
2023-04-01T12:30:11.552Z,100501.47
2023-04-01T12:33:02.149Z,100503.69
2023-04-01T12:36:01.079Z,100514.53
2023-04-01T12:38:49.443Z,100522.22
2023-04-01T12:41:28.018Z,100515.06
2023-04-01T12:44:30.131Z,100523.25
2023-04-01T12:47:30.826Z,100526.84
2023-04-01T12:50:56.495Z,100531.81
2023-04-01T12:53:41.878Z,100532.00
2023-04-01T12:56:23.589Z,100539.66
2023-04-01T12:59:22.001Z,100533.94
2023-04-01T13:01:57.789Z,100545.50
2023-04-01T13:04:36.521Z,100545.94
2023-04-01T13:07:06.490Z,100546.84
2023-04-01T13:09:51.935Z,100558.13
2023-04-01T13:12:40.689Z,100561.72
2023-04-01T13:15:19.199Z,100562.22
2023-04-01T13:18:05.878Z,100569.81
2023-04-01T13:20:50.178Z,100566.31
2023-04-01T13:24:00.366Z,100574.47
2023-04-01T13:26:45.852Z,100584.06
2023-04-01T13:29:19.212Z,100588.09
2023-04-01T13:31:50.998Z,100589.69
2023-04-01T13:34:48.981Z,100592.41
2023-04-01T13:37:53.391Z,100596.72
2023-04-01T13:40:36.561Z,100598.34
2023-04-01T13:43:12.355Z,100614.72
2023-04-01T13:46:03.773Z,100611.72
2023-04-01T13:49:07.499Z,100616.91
2023-04-01T13:51:53.371Z,100618.56
2023-04-01T13:54:32.220Z,100627.00
2023-04-01T13:57:23.426Z,100628.94
2023-04-01T13:59:58.876Z,100633.81
2023-04-01T14:02:56.498Z,100644.28
2023-04-01T14:05:53.950Z,100645.81
2023-04-01T14:08:45.243Z,100656.28
2023-04-01T14:11:21.691Z,100650.16
2023-04-01T14:14:15.457Z,100653.16
2023-04-01T14:17:01.704Z,100660.94
2023-04-01T14:19:53.351Z,100659.97
2023-04-01T14:22:41.615Z,100656.75
2023-04-01T14:25:45.438Z,100665.53
2023-04-01T14:28:34.293Z,100672.19
2023-04-01T14:31:06.997Z,100684.41
2023-04-01T14:33:58.743Z,100695.91
2023-04-01T14:36:59.028Z,100696.47
2023-04-01T14:39:31.658Z,100692.91
2023-04-01T14:42:25.981Z,100706.56
2023-04-01T14:44:56.590Z,100710.84
2023-04-01T14:47:51.691Z,100711.78
2023-04-01T14:50:26.215Z,100712.91
2023-04-01T14:53:08.164Z,100720.88
2023-04-01T14:55:35.220Z,100720.44
2023-04-01T14:58:23.685Z,100726.44
2023-04-01T15:00:56.357Z,100740.06
2023-04-01T15:03:41.402Z,100730.75
2023-04-01T15:06:37.060Z,100747.22
2023-04-01T15:09:06.727Z,100749.47
2023-04-01T15:12:01.204Z,100741.13
2023-04-01T15:14:46.846Z,100753.81
2023-04-01T15:17:28.384Z,100754.44
2023-04-01T15:20:16.491Z,100756.56
2023-04-01T15:22:49.119Z,100769.41
2023-04-01T15:26:13.971Z,100772.63
2023-04-01T15:29:10.498Z,100782.47
2023-04-01T15:31:45.817Z,100790.66
2023-04-01T15:35:00.373Z,100801.97
2023-04-01T15:37:46.443Z,100806.25
2023-04-01T15:40:25.016Z,100801.41
2023-04-01T15:43:23.352Z,100802.47
2023-04-01T15:46:10.487Z,100816.03
2023-04-01T15:48:56.858Z,100827.63
2023-04-01T15:51:49.715Z,100821.97
2023-04-01T15:54:26.256Z,100828.69
2023-04-01T15:57:02.009Z,100834.47
2023-04-01T15:59:53.610Z,100843.25
2023-04-01T16:02:32.480Z,100847.19
2023-04-01T16:04:59.160Z,100844.84
2023-04-01T16:07:37.650Z,100847.78
2023-04-01T16:10:45.566Z,100860.34
2023-04-01T16:13:36.444Z,100862.63
2023-04-01T16:16:12.947Z,100873.47
2023-04-01T16:18:45.363Z,100874.06
2023-04-01T16:21:49.654Z,100875.66
2023-04-01T16:24:34.219Z,100885.59
2023-04-01T16:27:11.804Z,100889.84
2023-04-01T16:29:56.194Z,100891.09
2023-04-01T16:32:50.621Z,100901.69
2023-04-01T16:35:47.804Z,100909.88
2023-04-01T16:38:20.674Z,100913.41
2023-04-01T16:41:11.384Z,100917.41
2023-04-01T16:43:48.825Z,100912.91
2023-04-01T16:46:38.320Z,100912.78
2023-04-01T16:49:18.463Z,100936.53
2023-04-01T16:52:15.987Z,100938.25
2023-04-01T16:55:02.764Z,100957.19
2023-04-01T16:57:44.406Z,100952.31
2023-04-01T17:00:40.112Z,100950.38
2023-04-01T17:03:23.573Z,100948.47
2023-04-01T17:06:03.420Z,100958.13
2023-04-01T17:08:57.270Z,100974.72
2023-04-01T17:11:43.451Z,100979.47
2023-04-01T17:14:29.462Z,100979.97
2023-04-01T17:17:02.005Z,100986.81
2023-04-01T17:19:54.921Z,100981.50
2023-04-01T17:22:32.382Z,100991.06
2023-04-01T17:25:31.411Z,100998.84
2023-04-01T17:28:28.917Z,100995.13
2023-04-01T17:31:14.101Z,101004.59
2023-04-01T17:33:56.984Z,101011.91
2023-04-01T17:36:43.531Z,101023.06
2023-04-01T17:39:42.729Z,101025.66
2023-04-01T17:42:16.580Z,101044.06
2023-04-01T17:45:02.272Z,101041.97
2023-04-01T17:47:56.402Z,101044.13
2023-04-01T17:50:41.664Z,101057.31
2023-04-01T17:53:14.991Z,101070.50
2023-04-01T17:55:55.373Z,101065.47
2023-04-01T17:58:29.978Z,101078.66
2023-04-01T18:01:02.511Z,101081.28
2023-04-01T18:03:47.786Z,101100.81
2023-04-01T18:06:33.567Z,101103.59
2023-04-01T18:09:01.981Z,101101.94
2023-04-01T18:11:53.790Z,101109.28
2023-04-01T18:14:54.562Z,101112.53
2023-04-01T18:17:53.378Z,101122.41
2023-04-01T18:20:22.691Z,101125.88
2023-04-01T18:23:03.755Z,101134.00
2023-04-01T18:25:39.182Z,101136.94
2023-04-01T18:28:24.480Z,101139.22
2023-04-01T18:31:02.151Z,101154.31
2023-04-01T18:33:53.731Z,101156.44
2023-04-01T18:36:39.967Z,101183.41
2023-04-01T18:39:19.946Z,101184.53
2023-04-01T18:42:02.943Z,101187.00
2023-04-01T18:45:04.915Z,101188.94
2023-04-01T18:47:48.158Z,101181.47
2023-04-01T18:50:23.885Z,101188.75
2023-04-01T18:52:59.768Z,101199.81
2023-04-01T18:55:46.260Z,101205.34
2023-04-01T18:58:14.752Z,101197.72
2023-04-01T19:00:51.679Z,101207.13
2023-04-01T19:03:29.491Z,101212.34
2023-04-01T19:06:01.094Z,101227.44
2023-04-01T19:08:34.696Z,101230.69
2023-04-01T19:11:26.393Z,101227.94
2023-04-01T19:14:29.059Z,101240.09
2023-04-01T19:17:26.360Z,101235.25
2023-04-01T19:20:01.400Z,101239.16
2023-04-01T19:22:56.778Z,101244.66
2023-04-01T19:25:32.376Z,101258.97
2023-04-01T19:28:23.706Z,101255.72
2023-04-01T19:31:04.978Z,101267.59
2023-04-01T19:33:37.775Z,101269.06
2023-04-01T19:36:22.872Z,101269.06
2023-04-01T19:39:22.199Z,101274.41
2023-04-01T19:41:56.825Z,101287.41
2023-04-01T19:44:29.431Z,101281.22
2023-04-01T19:47:02.112Z,101295.03
2023-04-01T19:49:47.823Z,101296.50
2023-04-01T19:52:30.482Z,101295.84
2023-04-01T19:55:16.891Z,101296.47
2023-04-01T19:58:21.348Z,101296.16
2023-04-01T20:01:01.920Z,101307.19
2023-04-01T20:03:55.560Z,101318.06
2023-04-01T20:06:56.594Z,101326.97
2023-04-01T20:09:32.274Z,101333.97
2023-04-01T20:12:11.020Z,101337.22
2023-04-01T20:14:47.568Z,101339.66
2023-04-01T20:17:20.480Z,101336.59
2023-04-01T20:19:57.228Z,101352.66
2023-04-01T20:22:29.728Z,101344.38
2023-04-01T20:25:02.688Z,101347.13
2023-04-01T20:27:37.435Z,101348.78
2023-04-01T20:30:22.385Z,101357.06
2023-04-01T20:33:28.242Z,101360.78
2023-04-01T20:36:07.024Z,101362.22
2023-04-01T20:38:52.443Z,101370.00
2023-04-01T20:41:29.153Z,101374.72
2023-04-01T20:44:15.609Z,101373.28
2023-04-01T20:46:46.293Z,101373.28
2023-04-01T20:49:39.914Z,101386.56
2023-04-01T20:52:15.683Z,101392.09
2023-04-01T20:55:13.180Z,101400.22
2023-04-01T20:57:47.169Z,101402.16
2023-04-01T21:00:34.600Z,101411.06
2023-04-01T21:03:01.248Z,101419.34
2023-04-01T21:05:55.053Z,101430.41
2023-04-01T21:08:56.603Z,101416.91
2023-04-01T21:11:33.672Z,101420.81
2023-04-01T21:14:45.824Z,101431.66
2023-04-01T21:17:38.195Z,101437.16
2023-04-01T21:20:23.162Z,101440.25
2023-04-01T21:23:14.342Z,101439.09
2023-04-01T21:26:05.364Z,101443.31
2023-04-01T21:28:50.722Z,101442.81
2023-04-01T21:31:54.534Z,101446.41
2023-04-01T21:34:43.976Z,101452.75
2023-04-01T21:37:32.202Z,101453.56
2023-04-01T21:40:36.406Z,101460.53
2023-04-01T21:43:57.388Z,101467.66
2023-04-01T21:46:49.963Z,101473.19
2023-04-01T21:49:37.893Z,101469.13
2023-04-01T21:52:13.335Z,101471.88
2023-04-01T21:54:52.097Z,101470.56
2023-04-01T21:57:49.573Z,101473.81
2023-04-01T22:00:32.869Z,101487.47
2023-04-01T22:03:19.588Z,101491.66
2023-04-01T22:06:21.257Z,101502.38
2023-04-01T22:09:11.490Z,101511.47
2023-04-01T22:11:56.414Z,101514.72
2023-04-01T22:14:29.048Z,101519.44
2023-04-01T22:17:04.606Z,101510.31
2023-04-01T22:19:51.839Z,101517.00
2023-04-01T22:22:29.977Z,101524.13
2023-04-01T22:25:02.408Z,101526.72
2023-04-01T22:27:39.944Z,101531.91
2023-04-01T22:30:19.684Z,101535.81
2023-04-01T22:33:11.143Z,101531.41
2023-04-01T22:35:51.433Z,101543.56
2023-04-01T22:38:21.803Z,101551.34
2023-04-01T22:40:53.295Z,101544.22
2023-04-01T22:43:28.905Z,101546.47
2023-04-01T22:46:34.387Z,101545.34
2023-04-01T22:49:10.615Z,101564.66
2023-04-01T22:51:54.494Z,101564.66
2023-04-01T22:54:30.691Z,101581.22
2023-04-01T22:57:03.218Z,101567.72
2023-04-01T22:59:56.130Z,101568.53
2023-04-01T23:02:29.378Z,101581.22
2023-04-01T23:05:03.306Z,101567.09
2023-04-01T23:07:50.282Z,101582.34
2023-04-01T23:10:25.991Z,101584.91
2023-04-01T23:12:55.856Z,101584.09
2023-04-01T23:15:23.440Z,101597.06
2023-04-01T23:18:01.879Z,101597.91
2023-04-01T23:20:34.699Z,101600.03
2023-04-01T23:23:19.673Z,101593.38
2023-04-01T23:26:03.230Z,101589.78
2023-04-01T23:28:45.703Z,101581.00
2023-04-01T23:31:31.531Z,101584.09
2023-04-01T23:34:01.763Z,101584.72
2023-04-01T23:36:31.040Z,101596.38
2023-04-01T23:39:08.570Z,101594.56
2023-04-01T23:41:36.127Z,101607.63
2023-04-01T23:44:11.844Z,101606.09
2023-04-01T23:46:41.737Z,101619.97
2023-04-01T23:49:15.299Z,101619.25
2023-04-01T23:51:53.522Z,101627.03
2023-04-01T23:54:31.640Z,101613.03
2023-04-01T23:56:58.895Z,101628.56
2023-04-01T23:59:32.254Z,101625.00
